createdAt,value
2023-02-09T00:02:16.199Z,31.83
2023-02-09T00:04:45.917Z,26.58
2023-02-09T00:07:14.272Z,30.27
2023-02-09T00:09:42.971Z,21.48
2023-02-09T00:12:25.055Z,23.75
2023-02-09T00:14:53.499Z,26.27
2023-02-09T00:17:21.766Z,25.73
2023-02-09T00:19:51.458Z,23.77
2023-02-09T00:22:19.682Z,23.80
2023-02-09T00:24:47.952Z,26.08
2023-02-09T00:27:16.228Z,24.73
2023-02-09T00:29:44.516Z,25.20
2023-02-09T00:32:12.853Z,27.48
2023-02-09T00:34:41.108Z,23.02
2023-02-09T00:37:10.748Z,23.98
2023-02-09T00:39:39.048Z,20.58
2023-02-09T00:42:07.366Z,16.92
2023-02-09T00:44:36.572Z,17.05
2023-02-09T00:47:05.563Z,21.58
2023-02-09T00:49:34.452Z,13.57
2023-02-09T00:52:02.747Z,17.75
2023-02-09T00:54:32.528Z,16.00
2023-02-09T00:57:05.397Z,15.38
2023-02-09T00:59:34.959Z,14.40
2023-02-09T01:02:04.100Z,15.38
2023-02-09T01:04:32.377Z,17.80
2023-02-09T01:07:00.652Z,15.82
2023-02-09T01:09:28.938Z,15.98
2023-02-09T01:11:58.593Z,16.00
2023-02-09T01:14:26.806Z,15.05
2023-02-09T01:16:55.211Z,12.45
2023-02-09T01:19:23.480Z,13.38
2023-02-09T01:21:51.729Z,15.65
2023-02-09T01:24:20.014Z,17.95
2023-02-09T01:26:48.191Z,15.40
2023-02-09T01:29:19.998Z,14.43
2023-02-09T01:31:48.930Z,15.43
2023-02-09T01:34:19.296Z,15.98
2023-02-09T01:36:48.505Z,16.25
2023-02-09T01:39:16.935Z,13.93
2023-02-09T01:41:45.874Z,11.50
2023-02-09T01:44:50.460Z,11.25
2023-02-09T01:47:21.394Z,12.75
2023-02-09T01:49:52.002Z,14.75
2023-02-09T01:52:24.611Z,14.48
2023-02-09T01:54:55.947Z,12.10
2023-02-09T01:57:28.849Z,15.02
2023-02-09T02:00:02.822Z,15.85
2023-02-09T02:02:32.700Z,10.90
2023-02-09T02:05:01.284Z,15.82
2023-02-09T02:07:34.247Z,13.25
2023-02-09T02:10:03.330Z,13.98
2023-02-09T02:12:33.722Z,11.90
2023-02-09T02:15:02.041Z,12.88
2023-02-09T02:17:46.350Z,11.13
2023-02-09T02:21:02.710Z,14.17
2023-02-09T02:23:39.422Z,14.07
2023-02-09T02:26:45.566Z,16.30
2023-02-09T02:29:40.923Z,11.40
2023-02-09T02:32:23.782Z,12.27
2023-02-09T02:34:59.135Z,11.20
2023-02-09T02:37:38.721Z,12.48
2023-02-09T02:40:15.772Z,11.60
2023-02-09T02:42:52.041Z,9.82
2023-02-09T02:45:41.582Z,11.20
2023-02-09T02:48:28.257Z,11.55
2023-02-09T02:51:00.929Z,11.70
2023-02-09T02:53:33.052Z,10.13
2023-02-09T02:56:07.413Z,14.10
2023-02-09T02:58:38.792Z,16.48
2023-02-09T03:01:12.046Z,13.77
2023-02-09T03:03:43.816Z,8.82
2023-02-09T03:06:12.897Z,10.90
2023-02-09T03:08:48.807Z,10.38
2023-02-09T03:11:18.934Z,13.93
2023-02-09T03:14:13.966Z,10.27
2023-02-09T03:16:47.470Z,9.43
2023-02-09T03:19:26.444Z,10.52
2023-02-09T03:21:59.333Z,9.98
2023-02-09T03:24:37.065Z,9.77
2023-02-09T03:27:13.222Z,9.60
2023-02-09T03:29:44.221Z,10.32
2023-02-09T03:32:12.633Z,13.07
2023-02-09T03:34:42.454Z,9.13
2023-02-09T03:37:10.888Z,10.25
2023-02-09T03:39:39.155Z,8.32
2023-02-09T03:42:07.857Z,10.75
2023-02-09T03:44:38.234Z,9.80
2023-02-09T03:47:08.706Z,10.90
2023-02-09T03:49:39.387Z,13.32
2023-02-09T03:52:11.428Z,13.07
2023-02-09T03:54:39.812Z,15.07
2023-02-09T03:57:09.282Z,12.65
2023-02-09T03:59:39.803Z,12.30
2023-02-09T04:02:10.400Z,11.27
2023-02-09T04:04:38.715Z,14.13
2023-02-09T04:07:08.549Z,12.20
2023-02-09T04:09:37.695Z,11.95
2023-02-09T04:12:06.315Z,10.35
2023-02-09T04:14:35.084Z,14.27
2023-02-09T04:17:03.349Z,13.35
2023-02-09T04:19:31.692Z,14.15
2023-02-09T04:22:00.980Z,15.90
2023-02-09T04:24:30.727Z,12.93
2023-02-09T04:26:59.009Z,14.50
2023-02-09T04:29:27.403Z,11.93
2023-02-09T04:31:56.051Z,14.57
2023-02-09T04:34:24.649Z,15.57
2023-02-09T04:36:53.085Z,11.10
2023-02-09T04:39:21.358Z,14.98
2023-02-09T04:41:51.133Z,12.45
2023-02-09T04:44:19.398Z,15.07
2023-02-09T04:46:47.598Z,13.20
2023-02-09T04:49:16.171Z,14.35
2023-02-09T04:51:44.324Z,14.02
2023-02-09T04:54:12.721Z,13.30
2023-02-09T04:56:41.379Z,12.30
2023-02-09T04:59:29.499Z,11.40
2023-02-09T05:01:57.715Z,17.02
2023-02-09T05:04:25.945Z,16.67
2023-02-09T05:06:54.153Z,10.82
2023-02-09T05:09:22.308Z,14.02
2023-02-09T05:11:50.470Z,16.88
2023-02-09T05:14:20.378Z,14.25
2023-02-09T05:16:48.692Z,13.80
2023-02-09T05:19:16.938Z,13.38
2023-02-09T05:21:45.076Z,12.05
2023-02-09T05:24:13.432Z,13.77
2023-02-09T05:26:41.640Z,15.15
2023-02-09T05:29:09.882Z,10.77
2023-02-09T05:31:39.542Z,11.45
2023-02-09T05:34:07.825Z,14.35
2023-02-09T05:36:36.022Z,13.45
2023-02-09T05:39:04.456Z,13.18
2023-02-09T05:41:50.064Z,12.90
2023-02-09T05:44:18.314Z,12.23
2023-02-09T05:46:47.985Z,13.55
2023-02-09T05:49:16.194Z,10.70
2023-02-09T05:51:44.370Z,13.13
2023-02-09T05:54:12.626Z,10.82
2023-02-09T05:56:40.844Z,13.63
2023-02-09T05:59:09.205Z,10.75
2023-02-09T06:01:37.491Z,17.00
2023-02-09T06:04:09.142Z,17.35
2023-02-09T06:06:38.115Z,15.90
2023-02-09T06:09:06.491Z,15.57
2023-02-09T06:11:34.800Z,10.32
2023-02-09T06:14:03.165Z,12.00
2023-02-09T06:16:31.420Z,15.65
2023-02-09T06:18:59.586Z,21.15
2023-02-09T06:21:29.188Z,13.65
2023-02-09T06:23:57.397Z,15.25
2023-02-09T06:26:25.577Z,15.98
2023-02-09T06:28:53.863Z,23.85
2023-02-09T06:31:22.107Z,20.77
2023-02-09T06:33:50.414Z,16.23
2023-02-09T06:36:18.582Z,16.55
2023-02-09T06:38:48.206Z,18.27
2023-02-09T06:41:16.360Z,18.17
2023-02-09T06:43:44.852Z,12.45
2023-02-09T06:46:14.824Z,16.08
2023-02-09T06:48:43.107Z,23.27
2023-02-09T06:51:12.813Z,22.98
2023-02-09T06:53:43.091Z,18.58
2023-02-09T06:56:14.077Z,28.30
2023-02-09T06:58:43.027Z,18.83
2023-02-09T07:01:13.574Z,22.67
2023-02-09T07:03:41.801Z,21.70
2023-02-09T07:06:12.272Z,19.80
2023-02-09T07:08:40.866Z,16.52
2023-02-09T07:11:11.935Z,18.90
2023-02-09T07:13:42.081Z,14.27
2023-02-09T07:16:12.101Z,14.45
2023-02-09T07:18:40.803Z,14.07
2023-02-09T07:21:12.473Z,14.82
2023-02-09T07:23:40.700Z,18.35
2023-02-09T07:26:11.752Z,12.07
2023-02-09T07:28:41.410Z,15.80
2023-02-09T07:31:12.270Z,16.00
2023-02-09T07:33:40.907Z,19.60
2023-02-09T07:36:11.122Z,21.83
2023-02-09T07:38:39.947Z,19.98
2023-02-09T07:41:12.442Z,14.75
2023-02-09T07:43:42.256Z,14.90
2023-02-09T07:46:11.109Z,18.20
2023-02-09T07:48:39.430Z,16.23
2023-02-09T07:51:07.830Z,26.27
2023-02-09T07:53:36.032Z,19.23
2023-02-09T07:56:06.504Z,46.25
2023-02-09T07:58:34.782Z,23.40
2023-02-09T08:01:08.128Z,21.67
2023-02-09T08:03:37.220Z,21.63
2023-02-09T08:06:12.481Z,25.33
2023-02-09T08:08:40.751Z,24.90
2023-02-09T08:11:08.919Z,23.20
2023-02-09T08:13:41.018Z,20.40
2023-02-09T08:16:13.283Z,21.42
2023-02-09T08:18:46.487Z,23.98
2023-02-09T08:21:17.011Z,22.00
2023-02-09T08:23:48.946Z,31.95
2023-02-09T08:26:17.460Z,29.55
2023-02-09T08:28:46.032Z,21.27
2023-02-09T08:31:17.664Z,20.40
2023-02-09T08:33:47.302Z,21.15
2023-02-09T08:36:17.823Z,23.35
2023-02-09T08:38:46.826Z,26.25
2023-02-09T08:41:16.808Z,22.38
2023-02-09T08:43:49.579Z,22.92
2023-02-09T08:46:20.121Z,19.50
2023-02-09T08:48:48.651Z,18.80
2023-02-09T08:51:17.744Z,20.00
2023-02-09T08:53:52.586Z,20.33
2023-02-09T08:56:22.757Z,21.65
2023-02-09T08:58:51.342Z,21.45
2023-02-09T09:01:21.098Z,26.20
2023-02-09T09:03:49.873Z,21.95
2023-02-09T09:06:18.257Z,28.33
2023-02-09T09:08:46.509Z,27.05
2023-02-09T09:11:14.987Z,23.17
2023-02-09T09:13:45.952Z,23.88
2023-02-09T09:16:18.832Z,27.58
2023-02-09T09:18:48.621Z,24.02
2023-02-09T09:21:19.208Z,20.92
2023-02-09T09:23:47.900Z,25.15
2023-02-09T09:26:16.861Z,25.02
2023-02-09T09:28:45.731Z,21.52
2023-02-09T09:31:16.725Z,17.85
2023-02-09T09:33:45.924Z,21.92
2023-02-09T09:36:16.011Z,16.13
2023-02-09T09:38:45.709Z,18.83
2023-02-09T09:41:23.861Z,29.90
2023-02-09T09:43:52.867Z,19.63
2023-02-09T09:46:24.759Z,18.38
2023-02-09T09:48:55.469Z,19.27
2023-02-09T09:51:36.115Z,17.95
2023-02-09T09:54:07.438Z,20.27
2023-02-09T09:56:35.786Z,19.50
2023-02-09T09:59:04.165Z,24.33
2023-02-09T10:01:33.543Z,20.95
2023-02-09T10:04:05.115Z,15.95
2023-02-09T10:06:34.822Z,24.08
2023-02-09T10:09:05.938Z,19.15
2023-02-09T10:11:39.138Z,24.65
2023-02-09T10:14:07.387Z,25.83
2023-02-09T10:16:38.463Z,22.40
2023-02-09T10:19:18.643Z,18.27
2023-02-09T10:21:48.939Z,18.70
2023-02-09T10:24:24.505Z,18.48
2023-02-09T10:27:08.841Z,18.70
2023-02-09T10:29:37.690Z,19.02
2023-02-09T10:32:14.468Z,18.98
2023-02-09T10:34:46.511Z,19.30
2023-02-09T10:37:20.865Z,20.52
2023-02-09T10:39:57.288Z,21.30
2023-02-09T10:42:30.550Z,24.20
2023-02-09T10:45:06.121Z,20.10
2023-02-09T10:47:34.494Z,21.48
2023-02-09T10:50:07.561Z,28.13
2023-02-09T10:52:40.037Z,23.60
2023-02-09T10:55:18.137Z,24.33
2023-02-09T10:57:46.451Z,23.08
2023-02-09T11:00:30.889Z,18.08
2023-02-09T11:03:02.825Z,20.85
2023-02-09T11:05:34.756Z,21.38
2023-02-09T11:08:13.849Z,26.83
2023-02-09T11:10:46.697Z,20.35
2023-02-09T11:13:25.078Z,27.23
2023-02-09T11:16:26.713Z,22.58
2023-02-09T11:19:01.565Z,21.58
2023-02-09T11:21:44.002Z,21.10
2023-02-09T11:24:26.327Z,23.60
2023-02-09T11:26:58.489Z,26.15
2023-02-09T11:29:31.541Z,27.98
2023-02-09T11:32:20.955Z,19.25
2023-02-09T11:35:10.629Z,23.67
2023-02-09T11:37:47.041Z,29.50
2023-02-09T11:40:26.172Z,22.75
2023-02-09T11:43:02.998Z,25.35
2023-02-09T11:45:36.312Z,30.70
2023-02-09T11:48:10.501Z,23.20
2023-02-09T11:50:48.302Z,22.23
2023-02-09T11:53:24.236Z,28.48
2023-02-09T11:55:57.960Z,27.08
2023-02-09T11:58:43.054Z,28.90
2023-02-09T12:01:21.562Z,29.27
2023-02-09T12:03:58.326Z,29.55
2023-02-09T12:06:28.598Z,30.17
2023-02-09T12:09:10.075Z,29.48
2023-02-09T12:11:52.048Z,27.92
2023-02-09T12:14:33.445Z,18.60
2023-02-09T12:17:11.963Z,36.63
2023-02-09T12:19:44.571Z,29.60
2023-02-09T12:22:51.543Z,29.80
2023-02-09T12:25:25.458Z,35.47
2023-02-09T12:28:42.364Z,24.45
2023-02-09T12:31:14.205Z,28.65
2023-02-09T12:34:13.731Z,26.33
2023-02-09T12:37:10.318Z,30.30
2023-02-09T12:39:38.610Z,28.45
2023-02-09T12:42:29.171Z,29.67
2023-02-09T12:45:01.271Z,33.25
2023-02-09T12:47:52.011Z,29.40
2023-02-09T12:50:25.662Z,31.92
2023-02-09T12:53:32.700Z,31.17
2023-02-09T12:56:03.768Z,29.88
2023-02-09T12:58:55.988Z,29.83
2023-02-09T13:02:09.772Z,28.42
2023-02-09T13:04:41.587Z,32.70
2023-02-09T13:07:24.641Z,27.85
2023-02-09T13:09:55.780Z,33.08
2023-02-09T13:12:35.603Z,28.23
2023-02-09T13:15:13.988Z,27.83
2023-02-09T13:17:54.908Z,39.70
2023-02-09T13:21:00.293Z,25.70
2023-02-09T13:23:34.745Z,30.65
2023-02-09T13:26:17.156Z,32.72
2023-02-09T13:28:45.401Z,26.60
2023-02-09T13:31:32.184Z,30.00
2023-02-09T13:34:07.904Z,29.35
2023-02-09T13:36:45.640Z,36.53
2023-02-09T13:39:23.907Z,28.13
2023-02-09T13:41:53.864Z,35.40
2023-02-09T13:44:23.760Z,33.08
2023-02-09T13:46:56.787Z,29.58
2023-02-09T13:49:28.320Z,33.42
2023-02-09T13:52:17.099Z,30.35
2023-02-09T13:54:45.663Z,24.17
2023-02-09T13:57:30.584Z,30.90
2023-02-09T14:00:04.200Z,31.05
2023-02-09T14:02:32.566Z,32.42
2023-02-09T14:05:06.447Z,31.58
2023-02-09T14:07:36.993Z,29.83
2023-02-09T14:10:12.857Z,32.95
2023-02-09T14:12:55.727Z,32.83
2023-02-09T14:15:59.863Z,31.55
2023-02-09T14:18:35.338Z,32.70
2023-02-09T14:23:44.809Z,28.30
2023-02-09T14:26:25.594Z,28.85
2023-02-09T14:29:04.823Z,31.63
2023-02-09T14:31:37.662Z,33.13
2023-02-09T14:34:06.020Z,30.88
2023-02-09T14:36:37.589Z,28.88
2023-02-09T14:39:13.063Z,26.92
2023-02-09T14:44:21.496Z,34.63
2023-02-09T14:46:51.834Z,30.95
2023-02-09T14:49:21.064Z,41.20
2023-02-09T14:51:52.866Z,28.73
2023-02-09T14:54:26.848Z,36.67
2023-02-09T14:56:57.941Z,34.53
2023-02-09T14:59:26.831Z,30.95
2023-02-09T15:01:56.522Z,33.92
2023-02-09T15:04:24.884Z,36.15
2023-02-09T15:07:04.216Z,32.00
2023-02-09T15:09:37.275Z,41.15
2023-02-09T15:12:06.486Z,36.33
2023-02-09T15:14:39.405Z,33.25
2023-02-09T15:17:17.061Z,40.25
2023-02-09T15:19:45.401Z,30.23
2023-02-09T15:22:16.919Z,43.65
2023-02-09T15:24:47.182Z,30.10
2023-02-09T15:27:20.140Z,34.08
2023-02-09T15:29:48.794Z,38.33
2023-02-09T15:32:18.558Z,34.08
2023-02-09T15:34:47.345Z,40.88
2023-02-09T15:37:20.927Z,38.03
2023-02-09T15:39:50.357Z,37.10
2023-02-09T15:42:37.591Z,37.90
2023-02-09T15:45:48.511Z,37.85
2023-02-09T15:48:16.894Z,32.67
2023-02-09T15:50:47.591Z,33.20
2023-02-09T15:53:19.395Z,34.42
2023-02-09T15:55:48.062Z,31.38
2023-02-09T15:58:19.335Z,34.20
2023-02-09T16:00:47.810Z,36.63
2023-02-09T16:03:18.908Z,28.90
2023-02-09T16:05:49.725Z,30.80
2023-02-09T16:08:24.034Z,36.88
2023-02-09T16:10:52.678Z,35.72
2023-02-09T16:13:21.750Z,29.02
2023-02-09T16:15:50.265Z,28.33
2023-02-09T16:18:18.482Z,40.63
2023-02-09T16:20:49.372Z,36.72
2023-02-09T16:23:22.237Z,31.23
2023-02-09T16:25:52.144Z,34.47
2023-02-09T16:28:20.996Z,30.83
2023-02-09T16:30:52.750Z,37.97
2023-02-09T16:33:21.849Z,35.17
2023-02-09T16:35:55.097Z,31.85
2023-02-09T16:38:25.978Z,33.75
2023-02-09T16:40:56.180Z,27.48
2023-02-09T16:43:24.803Z,39.92
2023-02-09T16:46:03.406Z,32.00
2023-02-09T16:48:34.600Z,29.60
2023-02-09T16:51:03.753Z,34.55
2023-02-09T16:53:37.980Z,27.98
2023-02-09T16:56:10.265Z,35.35
2023-02-09T16:58:39.022Z,40.35
2023-02-09T17:01:17.064Z,37.08
2023-02-09T17:03:48.396Z,42.00
2023-02-09T17:06:18.384Z,39.53
2023-02-09T17:08:48.934Z,32.65
2023-02-09T17:11:19.121Z,37.65
2023-02-09T17:13:47.951Z,31.92
2023-02-09T17:16:19.329Z,35.75
2023-02-09T17:18:50.465Z,45.88
2023-02-09T17:21:21.942Z,31.95
2023-02-09T17:23:52.529Z,37.03
2023-02-09T17:26:22.070Z,48.15
2023-02-09T17:28:50.272Z,39.80
2023-02-09T17:31:22.128Z,36.70
2023-02-09T17:33:53.073Z,42.15
2023-02-09T17:36:27.900Z,42.28
2023-02-09T17:38:59.886Z,39.30
2023-02-09T17:41:33.328Z,35.50
2023-02-09T17:44:24.130Z,37.75
2023-02-09T17:47:00.060Z,39.78
2023-02-09T17:49:28.417Z,41.70
2023-02-09T17:51:56.602Z,42.25
2023-02-09T17:54:27.872Z,39.80
2023-02-09T17:56:56.080Z,37.83
2023-02-09T17:59:24.400Z,44.35
2023-02-09T18:01:55.265Z,37.33
2023-02-09T18:04:27.202Z,42.33
2023-02-09T18:06:58.309Z,39.80
2023-02-09T18:09:28.028Z,43.92
2023-02-09T18:12:02.164Z,26.70
2023-02-09T18:14:32.694Z,28.98
2023-02-09T18:17:01.446Z,32.25
2023-02-09T18:19:31.472Z,28.55
2023-02-09T18:22:01.847Z,35.17
2023-02-09T18:24:33.140Z,40.00
2023-02-09T18:27:01.575Z,40.95
2023-02-09T18:29:30.382Z,37.80
2023-02-09T18:31:59.497Z,37.65
2023-02-09T18:34:28.292Z,41.65
2023-02-09T18:36:56.511Z,36.97
2023-02-09T18:39:24.914Z,39.60
2023-02-09T18:41:55.354Z,41.58
2023-02-09T18:44:28.776Z,42.17
2023-02-09T18:46:57.709Z,42.25
2023-02-09T18:49:26.224Z,39.28
2023-02-09T18:51:56.415Z,40.05
2023-02-09T18:54:26.142Z,39.47
2023-02-09T18:56:56.741Z,43.17
2023-02-09T18:59:32.101Z,39.67
2023-02-09T19:02:00.817Z,42.50
2023-02-09T19:04:29.229Z,39.45
2023-02-09T19:06:57.543Z,29.48
2023-02-09T19:09:26.192Z,37.67
2023-02-09T19:11:54.508Z,35.45
2023-02-09T19:14:39.015Z,39.70
2023-02-09T19:17:08.441Z,44.95
2023-02-09T19:19:36.659Z,37.38
2023-02-09T19:22:04.904Z,43.90
2023-02-09T19:24:33.373Z,43.83
2023-02-09T19:27:01.801Z,41.83
2023-02-09T19:29:31.462Z,40.30
2023-02-09T19:32:00.221Z,36.33
2023-02-09T19:34:32.008Z,46.83
2023-02-09T19:37:00.437Z,39.75
2023-02-09T19:39:28.733Z,38.22
2023-02-09T19:41:57.042Z,41.53
2023-02-09T19:44:25.398Z,41.72
2023-02-09T19:46:55.014Z,37.50
2023-02-09T19:49:24.084Z,39.60
2023-02-09T19:51:52.629Z,44.42
2023-02-09T19:54:20.809Z,33.70
2023-02-09T19:56:49.115Z,37.88
2023-02-09T19:59:17.604Z,43.03
2023-02-09T20:01:46.006Z,41.63
2023-02-09T20:04:15.817Z,40.88
2023-02-09T20:06:44.683Z,44.08
2023-02-09T20:09:13.284Z,34.35
2023-02-09T20:11:41.694Z,46.22
2023-02-09T20:14:10.272Z,41.78
2023-02-09T20:16:38.945Z,35.78
2023-02-09T20:19:07.242Z,45.70
2023-02-09T20:21:36.977Z,43.65
2023-02-09T20:24:09.683Z,45.95
2023-02-09T20:26:38.059Z,43.72
2023-02-09T20:29:07.040Z,47.60
2023-02-09T20:31:37.941Z,43.45
2023-02-09T20:34:08.158Z,42.38
2023-02-09T20:36:40.600Z,47.45
2023-02-09T20:39:16.452Z,39.97
2023-02-09T20:42:05.751Z,49.90
2023-02-09T20:44:51.933Z,38.15
2023-02-09T20:47:20.722Z,43.08
2023-02-09T20:49:48.981Z,32.10
2023-02-09T20:52:19.051Z,44.85
2023-02-09T20:54:47.425Z,47.70
2023-02-09T20:57:16.104Z,44.60
2023-02-09T20:59:44.429Z,35.30
2023-02-09T21:02:15.118Z,43.67
2023-02-09T21:04:43.660Z,50.20
2023-02-09T21:07:12.336Z,53.38
2023-02-09T21:09:42.065Z,50.50
2023-02-09T21:12:10.344Z,47.58
2023-02-09T21:14:42.077Z,47.78
2023-02-09T21:17:11.184Z,51.95
2023-02-09T21:19:39.794Z,51.17
2023-02-09T21:22:08.217Z,50.28
2023-02-09T21:24:37.733Z,50.78
2023-02-09T21:27:07.913Z,49.92
2023-02-09T21:29:36.892Z,49.88
2023-02-09T21:32:07.425Z,47.88
2023-02-09T21:34:35.949Z,42.05
2023-02-09T21:37:07.940Z,42.97
2023-02-09T21:39:36.298Z,51.80
2023-02-09T21:42:23.514Z,41.03
2023-02-09T21:44:51.834Z,49.97
2023-02-09T21:47:20.001Z,48.03
2023-02-09T21:49:48.283Z,45.15
2023-02-09T21:52:16.594Z,41.72
2023-02-09T21:54:44.850Z,48.25
2023-02-09T21:57:14.616Z,43.53
2023-02-09T21:59:42.916Z,47.28
2023-02-09T22:02:15.764Z,43.28
2023-02-09T22:04:44.818Z,51.53
2023-02-09T22:07:13.680Z,39.42
2023-02-09T22:09:42.405Z,42.13
2023-02-09T22:12:11.031Z,48.42
2023-02-09T22:14:40.709Z,40.38
2023-02-09T22:17:08.940Z,43.92
2023-02-09T22:19:37.794Z,43.35
2023-02-09T22:22:06.388Z,40.65
2023-02-09T22:24:35.116Z,31.48
2023-02-09T22:27:03.807Z,36.08
2023-02-09T22:29:33.348Z,29.85
2023-02-09T22:32:02.962Z,36.33
2023-02-09T22:34:31.335Z,50.05
2023-02-09T22:36:59.594Z,35.22
2023-02-09T22:39:27.875Z,43.17
2023-02-09T22:41:58.140Z,32.40
2023-02-09T22:44:28.011Z,46.97
2023-02-09T22:46:56.227Z,48.53
2023-02-09T22:49:26.065Z,52.08
2023-02-09T22:51:54.286Z,48.05
2023-02-09T22:54:22.649Z,49.05
2023-02-09T22:56:51.202Z,51.47
2023-02-09T22:59:19.483Z,49.00
2023-02-09T23:01:48.904Z,50.65
2023-02-09T23:04:17.212Z,55.20
2023-02-09T23:06:47.029Z,52.97
2023-02-09T23:09:16.213Z,46.28
2023-02-09T23:11:45.304Z,51.65
2023-02-09T23:14:14.348Z,51.03
2023-02-09T23:16:44.488Z,54.40
2023-02-09T23:19:14.705Z,45.30
2023-02-09T23:21:45.165Z,47.53
2023-02-09T23:24:16.298Z,61.63
2023-02-09T23:26:44.881Z,49.95
2023-02-09T23:29:14.905Z,45.30
2023-02-09T23:31:43.980Z,61.42
2023-02-09T23:34:15.080Z,48.05
2023-02-09T23:36:43.417Z,52.45
2023-02-09T23:39:16.512Z,57.75
2023-02-09T23:41:44.797Z,47.97
2023-02-09T23:44:13.439Z,53.38
2023-02-09T23:46:42.306Z,54.33
2023-02-09T23:49:10.606Z,51.75
2023-02-09T23:51:39.226Z,56.33
2023-02-09T23:54:08.484Z,55.08
2023-02-09T23:56:38.159Z,59.63
2023-02-09T23:59:08.236Z,60.78
